Historyczne dane pomiarowe

Dodano dane terminowe – wersja testowa.

Dane z okresu 1951-2019

Wersja bazy: 1.34 [2019-03-16, lista zmian], aktualizacja planowana na 2019-04-15

Dane meteo z obszaru Polski uzyskane na podstawie danych udostępnionych przez Instytut Meteorologii i Gospodarki Wodnej – Państwowy Instytut Badawczy.

 

Wybierz Datę:    

       

TemperaturaWilgotnośćWiatrCiśnienieOpadyŚniegCzas trwania zjawisk
 Stacja t tx tn tng RH VA  wxwx mslp ppp RRR   cm mm wxwxwxwxwxwxwx
1994-08-14 15.8 18.8 11.0- 55.0- 4.0 3.0---- 0.0------------
1994-08-13 16.5 21.5 14.3- 76.5- 6.7 2.3---- 2.8------------
1994-08-12 16.9 20.4 13.9- 86.8- 7.0 1.3---- 1.6------------
1994-08-11 19.8 26.0 17.4- 78.3- 6.7 1.7---- 5.0------------
1994-08-10 21.2 28.6 13.9- 67.8- 3.3 0.7---- 4.8------------
1994-08-09 20.2 24.0 17.5- 82.5- 7.0 0.7---- 10.9------------
1994-08-08 20.5 25.6 17.1- 76.8- 7.0 0.0---- 5.1------------
1994-08-07 22.6 28.2 18.6- 79.8- 5.7 0.7---- 1.7------------
1994-08-06 24.9 31.7 18.8- 60.3- 2.7 1.0---- 0.0------------
1994-08-05 23.9 33.3 13.4- 51.8- 0.0 2.0---- 0.0------------
1994-08-04 22.2 29.9 14.9- 57.5- 0.0 1.7---- 0.0------------
1994-08-03 24.1 29.5 19.3- 68.3- 4.3 1.3---- 0.0------------
1994-08-02 26.5 36.5 19.2- 60.3- 0.0 2.7---- 0.0------------
1994-08-01 29.5 36.6 19.2- 51.8- 1.0 1.0---- 0.0------------
1994-07-31 28.2 36.5 18.0- 49.3- 2.0 1.7---- 0.0------------
1994-07-30 27.5 36.0 15.8- 48.8- 1.3 0.7---- 0.0------------
1994-07-29 26.9 36.0 16.6- 49.8- 1.3 0.7---- 0.0------------
1994-07-28 26.2 34.5 15.3- 52.5- 0.0 1.0---- 0.0------------
1994-07-27 25.8 33.4 16.4- 56.3- 4.3 0.7---- 0.0------------
1994-07-26 25.4 34.5 14.5- 54.0- 4.7 0.7---- 0.0------------
1994-07-25 24.1 33.0 13.4- 52.5- 2.7 1.7---- 0.0------------
1994-07-24 22.8 31.4 11.9- 52.0- 1.0 1.7---- 0.0------------
1994-07-23 21.6 30.1 10.9- 51.8- 0.0 1.7---- 0.0------------
1994-07-22 21.2 30.4 10.4- 52.5- 0.0 0.7---- 0.0------------
1994-07-21 19.5 28.4 8.4- 53.5- 0.0 1.0---- 0.0------------
1994-07-20 18.1 24.9 8.6- 57.5- 0.7 1.3---- 0.0------------
1994-07-19 18.3 23.8 15.3- 68.0- 6.7 0.7---- 0.0------------
1994-07-18 18.5 23.9 12.7- 84.3- 5.7 0.7---- 0.0------------
1994-07-17 20.1 27.4 14.9- 81.0- 7.7 1.0---- 2.5------------
1994-07-16 23.3 28.5 18.4- 67.5- 5.0 1.3---- 0.0------------
1994-07-15 23.5 30.4 14.6- 60.0- 3.0 0.7---- 0.0------------
1994-07-14 23.4 31.4 13.4- 57.3- 2.3 1.7---- 0.0------------
1994-07-13 21.6 29.4 12.7- 61.8- 1.3 2.3---- 0.0------------
1994-07-12 21.1 27.3 13.4- 71.3- 5.7 1.0---- 0.0------------
1994-07-11 21.4 27.1 13.5- 62.8- 2.3 2.7---- 0.0------------
1994-07-10 18.2 23.5 13.9- 76.8- 5.3 3.0---- 1.8------------
1994-07-09 16.1 18.6 14.0- 81.0- 6.7 2.3---- 13.9------------
1994-07-08 16.0 19.5 10.9- 65.5- 4.3 5.0---- 0.5------------
1994-07-07 17.9 25.9 11.9- 77.5- 6.0 1.0---- 8.7------------
1994-07-06 19.6 27.1 12.1- 66.8- 4.3 1.7---- 0.0------------
1994-07-05 20.7 28.0 14.9- 66.8- 6.0 1.0---- 0.0------------
1994-07-04 22.4 30.3 11.7- 55.0- 0.0 0.0---- 0.0------------
1994-07-03 19.9 28.4 9.9- 60.5- 0.0 0.7---- 0.0------------
1994-07-02 18.5 25.4 9.4- 61.8- 0.0 0.7---- 0.0------------
1994-07-01 17.7 23.5 10.3- 60.3- 1.0 1.3---- 0.0------------
1994-06-30 19.8 28.0 16.9- 82.8- 7.0 0.7---- 9.0------------
1994-06-29 25.5 33.7 17.4- 65.3- 2.3 2.0---- 0.1------------
1994-06-28 25.0 31.7 17.2- 66.3- 3.3 1.0---- 0.0------------
1994-06-27 24.8 31.9 16.3- 63.8- 2.3 0.7---- 0.0------------
1994-06-26 22.7 31.5 11.4- 58.8- 0.7 0.7---- 0.0------------
1994-06-25 16.7 27.4 5.0- 57.5- 0.0 2.7---- 0.0------------
1994-06-24 15.7 21.5 8.0- 47.5- 0.0 2.3---- 0.0------------
1994-06-23 17.8 22.4 13.4- 50.0- 2.0 3.7---- 0.0------------
1994-06-22 20.0 26.9 12.7- 65.0- 6.3 3.3---- 0.0------------
1994-06-21 16.8 23.1 6.9- 59.8- 3.3 1.3---- 0.0------------
1994-06-20 17.3 24.0 13.4- 68.3- 6.3 2.0---- 0.0------------
1994-06-19 19.5 26.4 12.4- 58.0- 3.7 3.0---- 0.0------------
1994-06-18 13.2 21.4 4.6- 67.5- 6.3 1.0---- 3.9------------
1994-06-17 11.5 15.8 8.0- 64.8- 5.0 4.3---- 0.0------------
1994-06-16 11.8 17.0 8.0- 72.5- 8.0 2.0---- 3.8------------
282.9 ms

 

Źródłem pochodzenia danych jest Instytut Meteorologii i Gospodarki Wodnej – Państwowy Instytut Badawczy. Dane Instytutu Meteorologii i Gospodarki Wodnej – Państwowego Instytutu Badawczego zostały przetworzone.

Dane źródłowe można odnaleźć na stronie https://dane.imgw.pl